Time;durP1;ratioP1;P1;durP2;ratioP2;P2;SDS_P1;SDS_P2;PMS_P1;PMS_P2;Temp;Humidity;BMP_temperature;BMP_pressure;BME280_temperature;BME280_humidity;BME280_pressure;Samples;Min_cycle;Max_cycle;Signal;HPM_P1;HPM_P2
2022/11/29 00:00:46;;;;;;;87.68;21.10;;;;;;;;;;5130827;27;20043;-46
2022/11/29 00:03:13;;;;;;;58.55;19.65;;;;;;;;;;5131044;27;20415;-46
2022/11/29 00:05:40;;;;;;;61.45;19.50;;;;;;;;;;5130431;27;20103;-42
2022/11/29 00:08:06;;;;;;;61.17;19.27;;;;;;;;;;5130350;27;20054;-42
2022/11/29 00:10:36;;;;;;;64.68;20.30;;;;;;;;;;5129788;27;20069;-43
2022/11/29 00:13:03;;;;;;;73.57;20.33;;;;;;;;;;5130019;27;20043;-43
2022/11/29 00:15:29;;;;;;;66.78;19.42;;;;;;;;;;5131348;27;20039;-44
2022/11/29 00:17:56;;;;;;;63.40;19.73;;;;;;;;;;5128182;27;20040;-44
2022/11/29 00:20:22;;;;;;;70.03;21.08;;;;;;;;;;5129985;27;20061;-43
2022/11/29 00:22:49;;;;;;;86.80;21.80;;;;;;;;;;5129904;27;20445;-43
2022/11/29 00:25:15;;;;;;;60.08;19.75;;;;;;;;;;5129768;27;20031;-46
2022/11/29 00:27:42;;;;;;;63.13;20.45;;;;;;;;;;5130651;27;20141;-43
2022/11/29 00:30:08;;;;;;;67.75;21.05;;;;;;;;;;5090721;27;20043;-43
2022/11/29 00:32:35;;;;;;;83.13;22.77;;;;;;;;;;5129160;27;20100;-46
2022/11/29 00:35:01;;;;;;;60.40;20.38;;;;;;;;;;5130214;27;20028;-44
2022/11/29 00:37:34;;;;;;;;;;;;;;;;;;5130123;27;20055;-41
2022/11/29 00:40:01;;;;;;;64.82;20.95;;;;;;;;;;5129718;27;19927;-43
2022/11/29 00:42:28;;;;;;;77.95;22.67;;;;;;;;;;5130825;27;20051;-43
2022/11/29 00:44:54;;;;;;;75.72;21.63;;;;;;;;;;5129484;27;20054;-43
2022/11/29 00:47:21;;;;;;;69.13;21.38;;;;;;;;;;5129492;27;20039;-43
2022/11/29 00:49:47;;;;;;;78.00;23.25;;;;;;;;;;5129303;27;20035;-42
2022/11/29 00:52:14;;;;;;;78.28;23.33;;;;;;;;;;5129493;27;20040;-43
2022/11/29 00:54:40;;;;;;;85.05;23.92;;;;;;;;;;5130507;27;20503;-42
2022/11/29 00:57:07;;;;;;;53.88;19.48;;;;;;;;;;5129725;27;20047;-45
2022/11/29 00:59:33;;;;;;;70.22;21.20;;;;;;;;;;5129195;27;20057;-43
2022/11/29 01:02:00;;;;;;;59.90;21.10;;;;;;;;;;5128532;27;20431;-43
2022/11/29 01:04:26;;;;;;;84.18;22.02;;;;;;;;;;5088167;28;20131;-43
2022/11/29 01:06:53;;;;;;;104.13;25.33;;;;;;;;;;5088630;28;20040;-47
2022/11/29 01:09:20;;;;;;;71.95;21.13;;;;;;;;;;5088671;28;20102;-43
2022/11/29 01:11:48;;;;;;;77.18;21.10;;;;;;;;;;5088201;28;20472;-43
2022/11/29 01:14:14;;;;;;;87.68;23.23;;;;;;;;;;5087961;28;20032;-42
2022/11/29 01:16:41;;;;;;;74.18;21.52;;;;;;;;;;5087949;28;20047;-45
2022/11/29 01:19:07;;;;;;;66.07;22.23;;;;;;;;;;5088436;28;20044;-43
2022/11/29 01:21:34;;;;;;;81.68;22.38;;;;;;;;;;5089228;28;20628;-42
2022/11/29 01:24:00;;;;;;;69.90;21.80;;;;;;;;;;5088168;28;20044;-44
2022/11/29 01:26:28;;;;;;;75.10;20.38;;;;;;;;;;5087537;28;20043;-43
2022/11/29 01:28:55;;;;;;;81.82;21.17;;;;;;;;;;5087969;28;20042;-43
2022/11/29 01:31:27;;;;;;;76.35;21.95;;;;;;;;;;5087971;28;20036;-44
2022/11/29 01:33:57;;;;;;;76.10;22.63;;;;;;;;;;5088183;28;20048;-43
2022/11/29 01:36:24;;;;;;;91.82;22.38;;;;;;;;;;5086669;28;20115;-44
2022/11/29 01:38:51;;;;;;;59.13;19.83;;;;;;;;;;5087680;28;20044;-45
2022/11/29 01:41:19;;;;;;;80.32;22.00;;;;;;;;;;5086648;28;20028;-44
2022/11/29 01:44:04;;;;;;;81.53;23.38;;;;;;;;;;5087142;28;20040;-44
2022/11/29 01:46:32;;;;;;;81.82;23.50;;;;;;;;;;5084999;28;20115;-43
2022/11/29 01:49:02;;;;;;;81.07;22.88;;;;;;;;;;5086796;28;20424;-46
2022/11/29 01:51:29;;;;;;;81.22;22.70;;;;;;;;;;5087337;28;20086;-43
2022/11/29 01:53:55;;;;;;;74.25;21.65;;;;;;;;;;5087595;28;20042;-43
2022/11/29 01:56:23;;;;;;;71.65;21.33;;;;;;;;;;5086959;28;20145;-43
2022/11/29 01:58:50;;;;;;;71.88;21.35;;;;;;;;;;5087450;28;20480;-42
2022/11/29 02:01:16;;;;;;;78.30;22.55;;;;;;;;;;5086144;28;20130;-43
2022/11/29 02:03:43;;;;;;;74.65;21.63;;;;;;;;;;5101255;28;20868;-43
2022/11/29 02:06:09;;;;;;;66.53;22.10;;;;;;;;;;5104787;28;20058;-45
2022/11/29 02:08:38;;;;;;;71.68;21.10;;;;;;;;;;5107219;28;20139;-45
2022/11/29 02:11:10;;;;;;;64.93;20.50;;;;;;;;;;5103659;28;20047;-44
2022/11/29 02:13:42;;;;;;;78.45;21.85;;;;;;;;;;5108130;28;20483;-45
2022/11/29 02:16:19;;;;;;;64.50;17.75;;;;;;;;;;5111471;28;20073;-43
2022/11/29 02:19:07;;;;;;;64.53;20.42;;;;;;;;;;5111542;28;20128;-44
2022/11/29 02:21:46;;;;;;;69.20;20.10;;;;;;;;;;5112648;28;20035;-44
2022/11/29 02:24:25;;;;;;;65.13;20.08;;;;;;;;;;5111455;28;20055;-45
2022/11/29 02:27:10;;;;;;;80.00;20.85;;;;;;;;;;5111574;28;20046;-44
2022/11/29 02:29:49;;;;;;;70.53;19.55;;;;;;;;;;5110005;28;20039;-43
2022/11/29 02:32:34;;;;;;;67.13;19.65;;;;;;;;;;5109130;28;20543;-43
2022/11/29 02:35:13;;;;;;;64.15;20.00;;;;;;;;;;5108734;28;20089;-44
2022/11/29 02:37:42;;;;;;;54.95;17.45;;;;;;;;;;5107863;28;20040;-43
2022/11/29 02:40:36;;;;;;;61.90;18.30;;;;;;;;;;5111413;27;20040;-47
2022/11/29 02:43:02;;;;;;;63.92;19.65;;;;;;;;;;5111903;28;20519;-46
2022/11/29 02:45:35;;;;;;;75.47;20.25;;;;;;;;;;5112496;28;20054;-45
2022/11/29 02:48:16;;;;;;;59.45;17.70;;;;;;;;;;5111659;28;20543;-45
2022/11/29 02:50:56;;;;;;;74.80;19.50;;;;;;;;;;5109595;28;20040;-43
2022/11/29 02:53:43;;;;;;;65.88;19.65;;;;;;;;;;5109640;28;20072;-45
2022/11/29 02:56:23;;;;;;;64.32;18.02;;;;;;;;;;5109218;28;20725;-43
2022/11/29 02:59:00;;;;;;;61.17;19.33;;;;;;;;;;5108607;28;20035;-44
2022/11/29 03:01:35;;;;;;;73.47;20.00;;;;;;;;;;5107334;28;20044;-45
2022/11/29 03:04:17;;;;;;;67.28;19.48;;;;;;;;;;5128238;27;20055;-43
2022/11/29 03:07:02;;;;;;;81.97;19.25;;;;;;;;;;5130319;27;20487;-43
2022/11/29 03:09:32;;;;;;;60.47;17.65;;;;;;;;;;5130491;27;20043;-45
2022/11/29 03:12:09;;;;;;;72.63;19.85;;;;;;;;;;5111261;27;20077;-44
2022/11/29 03:15:11;;;;;;;71.45;19.38;;;;;;;;;;5131013;27;20051;-48
2022/11/29 03:17:56;;;;;;;62.15;18.13;;;;;;;;;;5011254;28;20045;-43
2022/11/29 03:20:23;;;;;;;73.15;18.58;;;;;;;;;;5027552;28;20048;-49
2022/11/29 03:22:49;;;;;;;64.28;17.58;;;;;;;;;;5027682;28;20799;-43
2022/11/29 03:25:15;;;;;;;73.43;18.50;;;;;;;;;;5022903;28;20045;-45
2022/11/29 03:27:46;;;;;;;59.15;18.27;;;;;;;;;;5028598;28;20449;-45
2022/11/29 03:30:16;;;;;;;59.90;18.85;;;;;;;;;;5027836;28;20053;-46
2022/11/29 03:33:01;;;;;;;55.30;18.02;;;;;;;;;;5027452;28;20673;-44
2022/11/29 03:35:41;;;;;;;65.07;17.67;;;;;;;;;;5027711;28;20055;-44
2022/11/29 03:38:13;;;;;;;73.88;18.67;;;;;;;;;;5026945;28;20109;-46
2022/11/29 03:40:58;;;;;;;68.20;17.77;;;;;;;;;;5025983;28;20052;-43
2022/11/29 03:43:43;;;;;;;59.67;17.90;;;;;;;;;;5027038;28;20049;-46
2022/11/29 03:46:28;;;;;;;73.60;20.10;;;;;;;;;;5027598;28;20049;-46
2022/11/29 03:49:01;;;;;;;79.10;20.40;;;;;;;;;;5027745;28;20084;-42
2022/11/29 03:51:37;;;;;;;50.90;17.38;;;;;;;;;;5068466;27;20051;-45
2022/11/29 03:54:08;;;;;;;60.47;18.90;;;;;;;;;;5130421;27;20043;-44
2022/11/29 03:56:38;;;;;;;70.00;19.08;;;;;;;;;;5130258;27;20031;-45
2022/11/29 03:59:27;;;;;;;55.92;17.48;;;;;;;;;;5130385;27;20061;-46
2022/11/29 04:01:53;;;;;;;55.25;17.65;;;;;;;;;;5126728;27;20042;-44
2022/11/29 04:04:35;;;;;;;76.43;20.27;;;;;;;;;;5130704;27;20077;-42
2022/11/29 04:07:20;;;;;;;72.63;19.17;;;;;;;;;;5129431;27;20054;-46
2022/11/29 04:10:05;;;;;;;58.80;19.45;;;;;;;;;;5127133;27;20035;-45
2022/11/29 04:12:50;;;;;;;63.22;18.83;;;;;;;;;;5131185;27;20465;-46
2022/11/29 04:15:29;;;;;;;64.78;18.73;;;;;;;;;;5130003;27;20395;-45
2022/11/29 04:18:01;;;;;;;58.35;18.88;;;;;;;;;;5128319;27;20050;-44
2022/11/29 04:20:46;;;;;;;56.95;17.40;;;;;;;;;;5129707;27;20112;-42
2022/11/29 04:23:46;;;;;;;63.58;19.05;;;;;;;;;;5128198;27;20039;-44
2022/11/29 04:26:18;;;;;;;54.50;16.88;;;;;;;;;;5026231;28;20056;-47
2022/11/29 04:29:03;;;;;;;64.82;18.98;;;;;;;;;;5026465;28;20057;-44
2022/11/29 04:31:32;;;;;;;63.42;18.40;;;;;;;;;;5026507;28;20045;-45
2022/11/29 04:34:23;;;;;;;75.93;18.88;;;;;;;;;;5026414;28;20049;-45
2022/11/29 04:36:57;;;;;;;59.92;19.10;;;;;;;;;;5025844;28;20049;-44
2022/11/29 04:39:42;;;;;;;70.35;18.38;;;;;;;;;;5026308;28;20107;-44
2022/11/29 04:42:27;;;;;;;50.70;17.33;;;;;;;;;;5026153;28;20597;-43
2022/11/29 04:45:06;;;;;;;58.33;19.55;;;;;;;;;;5026256;28;20045;-43
2022/11/29 04:47:43;;;;;;;64.50;18.60;;;;;;;;;;5026040;28;20052;-44
2022/11/29 04:50:19;;;;;;;77.28;20.05;;;;;;;;;;5025780;28;20083;-43
2022/11/29 04:52:51;;;;;;;72.15;18.77;;;;;;;;;;5026052;28;20529;-45
2022/11/29 04:55:27;;;;;;;70.43;19.30;;;;;;;;;;5026069;28;20054;-43
2022/11/29 04:58:06;;;;;;;65.13;19.42;;;;;;;;;;5026799;28;20037;-43
2022/11/29 05:00:38;;;;;;;74.55;18.52;;;;;;;;;;5026948;28;20053;-44
2022/11/29 05:03:12;;;;;;;54.35;19.48;;;;;;;;;;5126439;27;20426;-43
2022/11/29 05:05:41;;;;;;;68.60;19.10;;;;;;;;;;5126141;27;20078;-46
2022/11/29 05:08:20;;;;;;;64.32;19.05;;;;;;;;;;5129786;27;20039;-44
2022/11/29 05:11:06;;;;;;;104.00;22.30;;;;;;;;;;5126079;27;20062;-44
2022/11/29 05:13:32;;;;;;;88.30;21.30;;;;;;;;;;5127166;27;20605;-42
2022/11/29 05:16:14;;;;;;;74.90;20.00;;;;;;;;;;5129907;27;20039;-44
2022/11/29 05:18:56;;;;;;;57.95;20.00;;;;;;;;;;5129491;27;20037;-45
2022/11/29 05:21:22;;;;;;;82.13;21.25;;;;;;;;;;5110427;27;20043;-44
2022/11/29 05:23:58;;;;;;;59.47;19.50;;;;;;;;;;5128889;27;20031;-43
2022/11/29 05:26:32;;;;;;;66.78;20.67;;;;;;;;;;5128496;27;20104;-43
2022/11/29 05:29:05;;;;;;;59.78;19.50;;;;;;;;;;5125713;27;20067;-44
2022/11/29 05:31:34;;;;;;;75.18;19.70;;;;;;;;;;5128413;27;20403;-43
2022/11/29 05:34:06;;;;;;;78.28;21.88;;;;;;;;;;5127023;27;20043;-43
2022/11/29 05:36:51;;;;;;;66.28;19.08;;;;;;;;;;5128146;27;20036;-43
2022/11/29 05:39:37;;;;;;;72.90;20.95;;;;;;;;;;5127414;27;20078;-44
2022/11/29 05:42:22;;;;;;;53.97;19.17;;;;;;;;;;5127636;27;20053;-44
2022/11/29 05:45:27;;;;;;;67.68;23.00;;;;;;;;;;5127358;27;20043;-47
2022/11/29 05:47:59;;;;;;;74.32;22.55;;;;;;;;;;5036492;28;20075;-46
2022/11/29 05:50:27;;;;;;;71.30;19.90;;;;;;;;;;5034096;28;20055;-46
2022/11/29 05:53:12;;;;;;;71.93;22.05;;;;;;;;;;5036584;28;20071;-44
2022/11/29 05:55:43;;;;;;;66.38;19.80;;;;;;;;;;5034467;28;20045;-44
2022/11/29 05:58:19;;;;;;;79.75;21.88;;;;;;;;;;5035868;28;20045;-47
2022/11/29 06:00:57;;;;;;;75.95;21.02;;;;;;;;;;5036656;28;20068;-46
2022/11/29 06:03:31;;;;;;;113.40;24.00;;;;;;;;;;5036394;28;20128;-45
2022/11/29 06:06:07;;;;;;;56.17;22.02;;;;;;;;;;5033122;28;20041;-44
2022/11/29 06:08:49;;;;;;;89.47;24.52;;;;;;;;;;5038234;28;20053;-45
2022/11/29 06:11:33;;;;;;;81.55;23.25;;;;;;;;;;5031847;28;20418;-44
2022/11/29 06:14:12;;;;;;;63.33;21.63;;;;;;;;;;5036410;28;20049;-43
2022/11/29 06:16:57;;;;;;;80.32;24.83;;;;;;;;;;5034247;28;20519;-46
2022/11/29 06:19:31;;;;;;;95.05;27.50;;;;;;;;;;5103941;27;20055;-44
2022/11/29 06:22:04;;;;;;;80.13;24.52;;;;;;;;;;5127174;27;20554;-45
2022/11/29 06:24:44;;;;;;;92.18;23.75;;;;;;;;;;5126296;27;20866;-44
2022/11/29 06:27:30;;;;;;;62.33;21.00;;;;;;;;;;5127445;27;20038;-46
2022/11/29 06:30:03;;;;;;;91.53;22.70;;;;;;;;;;5099332;28;20077;-46
2022/11/29 06:32:39;;;;;;;81.38;21.63;;;;;;;;;;5127650;28;20114;-43
2022/11/29 06:35:16;;;;;;;65.88;21.52;;;;;;;;;;5127949;28;20035;-44
2022/11/29 06:37:49;;;;;;;56.47;21.42;;;;;;;;;;5125440;28;20042;-45
2022/11/29 06:40:16;;;;;;;86.07;23.55;;;;;;;;;;5126936;27;20429;-45
2022/11/29 06:42:42;;;;;;;58.40;21.35;;;;;;;;;;5129602;28;20035;-44
2022/11/29 06:45:11;;;;;;;60.65;21.05;;;;;;;;;;5128142;28;20043;-44
2022/11/29 06:48:15;;;;;;;71.75;22.80;;;;;;;;;;5128075;28;20483;-44
2022/11/29 06:51:01;;;;;;;87.82;26.00;;;;;;;;;;5024288;28;20046;-45
2022/11/29 06:53:33;;;;;;;71.28;22.63;;;;;;;;;;5024667;28;20056;-44
2022/11/29 06:56:05;;;;;;;97.10;25.85;;;;;;;;;;5023925;28;20573;-46
2022/11/29 06:58:47;;;;;;;64.60;21.15;;;;;;;;;;5024776;28;20053;-47
2022/11/29 07:01:32;;;;;;;65.93;22.42;;;;;;;;;;5026303;28;20045;-43
2022/11/29 07:04:04;;;;;;;81.43;25.50;;;;;;;;;;5028029;28;20053;-44
2022/11/29 07:06:32;;;;;;;92.40;28.05;;;;;;;;;;5029064;28;20050;-46
2022/11/29 07:09:00;;;;;;;64.68;21.38;;;;;;;;;;5027598;28;20520;-43
2022/11/29 07:11:26;;;;;;;84.00;27.30;;;;;;;;;;5027902;28;20046;-45
2022/11/29 07:13:53;;;;;;;73.57;22.48;;;;;;;;;;5027796;28;20052;-45
2022/11/29 07:16:22;;;;;;;76.03;24.67;;;;;;;;;;5027762;28;20098;-47
2022/11/29 07:18:57;;;;;;;68.68;22.70;;;;;;;;;;5027865;28;20045;-48
2022/11/29 07:21:42;;;;;;;76.30;22.92;;;;;;;;;;5065648;28;20051;-45
2022/11/29 07:24:11;;;;;;;68.05;22.73;;;;;;;;;;5110374;28;20075;-45
2022/11/29 07:26:43;;;;;;;79.28;22.95;;;;;;;;;;5106919;28;20044;-44
2022/11/29 07:29:25;;;;;;;66.65;22.25;;;;;;;;;;5110893;28;20381;-44
2022/11/29 07:31:51;;;;;;;81.90;21.50;;;;;;;;;;5108399;28;20044;-45
2022/11/29 07:34:18;;;;;;;63.22;19.45;;;;;;;;;;5110831;28;20035;-47
2022/11/29 07:36:44;;;;;;;58.38;20.10;;;;;;;;;;5108374;28;20050;-44
2022/11/29 07:39:18;;;;;;;71.15;21.98;;;;;;;;;;5109927;28;20050;-43
2022/11/29 07:41:45;;;;;;;65.22;19.88;;;;;;;;;;5107474;28;20048;-44
2022/11/29 07:44:30;;;;;;;66.82;22.25;;;;;;;;;;5110781;28;20039;-43
2022/11/29 07:46:56;;;;;;;64.70;22.77;;;;;;;;;;5108256;28;20446;-45
2022/11/29 07:49:23;;;;;;;61.85;22.90;;;;;;;;;;5110607;28;20053;-44
2022/11/29 07:51:50;;;;;;;65.65;21.30;;;;;;;;;;5110699;28;20040;-44
2022/11/29 07:54:17;;;;;;;66.25;19.23;;;;;;;;;;5111215;28;20499;-48
2022/11/29 07:56:43;;;;;;;54.83;19.80;;;;;;;;;;5110411;28;20051;-46
2022/11/29 07:59:11;;;;;;;69.63;21.33;;;;;;;;;;5110479;28;20039;-47
2022/11/29 08:01:38;;;;;;;54.15;19.60;;;;;;;;;;5109940;28;20047;-43
2022/11/29 08:04:06;;;;;;;69.55;21.35;;;;;;;;;;5127733;27;20047;-44
2022/11/29 08:06:33;;;;;;;75.80;20.38;;;;;;;;;;5131466;27;20049;-44
2022/11/29 08:09:00;;;;;;;81.10;21.35;;;;;;;;;;5130233;27;20095;-45
2022/11/29 08:11:26;;;;;;;47.80;19.10;;;;;;;;;;5130804;27;20039;-44
2022/11/29 08:13:57;;;;;;;56.10;20.77;;;;;;;;;;5130293;27;20134;-46
2022/11/29 08:16:23;;;;;;;77.07;22.02;;;;;;;;;;5130073;27;20137;-44
2022/11/29 08:18:50;;;;;;;62.95;19.67;;;;;;;;;;5128840;27;20483;-44
2022/11/29 08:21:17;;;;;;;71.72;22.00;;;;;;;;;;5130969;27;20050;-48
2022/11/29 08:23:44;;;;;;;75.72;22.42;;;;;;;;;;5130695;27;20085;-46
2022/11/29 08:26:11;;;;;;;67.22;21.63;;;;;;;;;;5126257;27;20043;-45
2022/11/29 08:28:38;;;;;;;70.88;21.13;;;;;;;;;;5111670;27;20047;-45
2022/11/29 08:31:06;;;;;;;68.30;20.95;;;;;;;;;;5130115;27;20043;-44
2022/11/29 08:33:39;;;;;;;56.22;20.13;;;;;;;;;;5131420;27;20039;-44
2022/11/29 08:36:06;;;;;;;55.80;19.98;;;;;;;;;;5130325;27;20039;-45
2022/11/29 08:38:32;;;;;;;74.07;22.17;;;;;;;;;;5129758;27;20035;-43
2022/11/29 08:41:03;;;;;;;62.33;20.00;;;;;;;;;;5129757;27;20050;-50
2022/11/29 08:43:30;;;;;;;63.05;20.88;;;;;;;;;;5130471;27;20558;-45
2022/11/29 08:45:57;;;;;;;65.50;20.83;;;;;;;;;;5129391;27;20039;-43
2022/11/29 08:48:24;;;;;;;84.72;21.17;;;;;;;;;;5130457;27;20041;-44
2022/11/29 08:50:51;;;;;;;60.80;20.40;;;;;;;;;;5129513;27;20334;-44
2022/11/29 08:56:04;;;;;;;60.45;21.65;;;;;;;;;;5126984;27;20398;-44
2022/11/29 08:58:50;;;;;;;70.00;20.40;;;;;;;;;;5127513;27;20110;-45
2022/11/29 09:01:17;;;;;;;76.22;21.60;;;;;;;;;;5129553;27;20074;-44
2022/11/29 09:04:01;;;;;;;59.78;20.63;;;;;;;;;;5130243;27;20043;-47
2022/11/29 09:06:30;;;;;;;69.95;21.60;;;;;;;;;;5129877;27;20045;-47
2022/11/29 09:08:58;;;;;;;63.00;19.50;;;;;;;;;;5129204;27;20100;-46
2022/11/29 09:11:25;;;;;;;68.07;19.30;;;;;;;;;;5129447;27;20531;-45
2022/11/29 09:13:53;;;;;;;53.53;19.95;;;;;;;;;;5128702;27;20039;-44
2022/11/29 09:16:22;;;;;;;64.53;19.98;;;;;;;;;;5129427;27;20043;-45
2022/11/29 09:18:48;;;;;;;67.78;20.90;;;;;;;;;;5130154;27;20070;-44
2022/11/29 09:21:17;;;;;;;66.43;19.48;;;;;;;;;;5129527;27;20476;-44
2022/11/29 09:23:44;;;;;;;61.10;19.98;;;;;;;;;;5128758;27;20045;-44
2022/11/29 09:26:15;;;;;;;59.03;20.50;;;;;;;;;;5128786;27;20049;-45
2022/11/29 09:28:41;;;;;;;56.80;20.17;;;;;;;;;;5128878;27;20496;-44
2022/11/29 09:31:11;;;;;;;73.15;20.40;;;;;;;;;;5129521;27;20035;-44
2022/11/29 09:33:41;;;;;;;50.95;17.73;;;;;;;;;;5130404;27;20039;-44
2022/11/29 09:36:08;;;;;;;57.38;18.63;;;;;;;;;;5129132;27;20419;-44
2022/11/29 09:38:35;;;;;;;57.15;18.30;;;;;;;;;;5128879;27;20050;-45
2022/11/29 09:41:01;;;;;;;53.40;18.42;;;;;;;;;;5128950;27;20039;-44
2022/11/29 09:43:34;;;;;;;63.08;20.60;;;;;;;;;;5128785;27;20043;-46
2022/11/29 09:46:18;;;;;;;69.15;19.38;;;;;;;;;;5129484;27;20434;-46
2022/11/29 09:48:54;;;;;;;50.25;18.45;;;;;;;;;;5128116;27;20096;-46
2022/11/29 09:51:29;;;;;;;63.47;20.63;;;;;;;;;;5129516;27;20039;-43
2022/11/29 09:54:34;;;;;;;67.50;21.15;;;;;;;;;;5128608;27;20047;-44
2022/11/29 09:57:02;;;;;;;59.72;20.80;;;;;;;;;;5037763;28;20045;-46
2022/11/29 09:59:41;;;;;;;54.53;18.50;;;;;;;;;;5028420;28;20069;-43
2022/11/29 10:02:15;;;;;;;59.47;18.67;;;;;;;;;;5039478;28;20080;-44
2022/11/29 10:04:49;;;;;;;61.88;18.92;;;;;;;;;;5036286;28;20045;-47
2022/11/29 10:07:26;;;;;;;68.00;20.88;;;;;;;;;;5035867;28;20549;-45
2022/11/29 10:09:55;;;;;;;60.78;18.73;;;;;;;;;;5033060;28;20799;-46
2022/11/29 10:12:31;;;;;;;58.70;19.27;;;;;;;;;;5033731;28;20053;-47
2022/11/29 10:15:03;;;;;;;53.92;17.95;;;;;;;;;;5036592;28;20088;-47
2022/11/29 10:17:38;;;;;;;50.58;19.35;;;;;;;;;;5036031;28;20218;-48
2022/11/29 10:20:25;;;;;;;52.47;19.05;;;;;;;;;;5035988;28;20125;-46
2022/11/29 10:22:54;;;;;;;54.45;18.45;;;;;;;;;;5036012;28;20045;-45
2022/11/29 10:25:26;;;;;;;58.60;18.13;;;;;;;;;;5034965;28;20477;-46
2022/11/29 10:27:53;;;;;;;65.90;20.00;;;;;;;;;;5078888;28;20086;-45
2022/11/29 10:30:19;;;;;;;51.80;15.43;;;;;;;;;;5128665;27;20076;-44
2022/11/29 10:32:49;;;;;;;56.63;17.27;;;;;;;;;;5128063;27;20126;-47
2022/11/29 10:35:17;;;;;;;59.50;18.30;;;;;;;;;;5128663;27;20027;-45
2022/11/29 10:37:44;;;;;;;68.65;20.50;;;;;;;;;;5132647;27;20035;-44
2022/11/29 10:40:32;;;;;;;73.40;20.27;;;;;;;;;;5129306;27;20106;-44
2022/11/29 10:42:59;;;;;;;59.83;19.45;;;;;;;;;;5132703;27;20059;-46
2022/11/29 10:45:30;;;;;;;64.43;20.60;;;;;;;;;;5133149;27;20039;-47
2022/11/29 10:48:03;;;;;;;45.35;16.88;;;;;;;;;;5132315;27;20708;-45
2022/11/29 10:50:33;;;;;;;58.75;18.00;;;;;;;;;;5128796;27;20449;-44
2022/11/29 10:53:11;;;;;;;48.13;17.70;;;;;;;;;;5132115;27;20043;-44
2022/11/29 10:55:53;;;;;;;60.17;18.13;;;;;;;;;;5129095;27;20070;-44
2022/11/29 10:58:24;;;;;;;70.13;19.80;;;;;;;;;;5129547;27;20141;-43
2022/11/29 11:00:58;;;;;;;55.03;18.95;;;;;;;;;;5132473;27;20701;-45
2022/11/29 11:03:24;;;;;;;49.97;18.60;;;;;;;;;;5132145;27;20163;-47
2022/11/29 11:06:17;;;;;;;54.22;20.75;;;;;;;;;;5131767;27;20047;-43
2022/11/29 11:08:50;;;;;;;62.75;19.80;;;;;;;;;;5127070;27;20134;-44
2022/11/29 11:11:27;;;;;;;42.03;16.25;;;;;;;;;;5131490;27;20376;-43
2022/11/29 11:14:01;;;;;;;54.67;18.38;;;;;;;;;;5128679;27;20510;-43
2022/11/29 11:16:28;;;;;;;74.40;19.80;;;;;;;;;;5131567;27;20126;-43
2022/11/29 11:19:21;;;;;;;84.00;20.20;;;;;;;;;;5131835;27;20035;-44
2022/11/29 11:21:48;;;;;;;67.05;21.90;;;;;;;;;;5130842;27;20126;-44
2022/11/29 11:24:26;;;;;;;68.72;19.58;;;;;;;;;;5131032;27;20039;-45
2022/11/29 11:26:53;;;;;;;46.28;16.70;;;;;;;;;;5131947;27;20053;-44
2022/11/29 11:29:22;;;;;;;56.10;18.63;;;;;;;;;;5131323;27;20376;-43
2022/11/29 11:31:54;;;;;;;52.38;18.20;;;;;;;;;;5131450;27;20039;-45
2022/11/29 11:34:33;;;;;;;78.82;20.75;;;;;;;;;;5131535;27;20038;-43
2022/11/29 11:37:15;;;;;;;73.75;20.08;;;;;;;;;;5130351;27;20049;-43
2022/11/29 11:39:42;;;;;;;52.42;17.67;;;;;;;;;;5131063;27;20046;-46
2022/11/29 11:44:58;;;;;;;51.95;18.63;;;;;;;;;;5128657;27;20131;-45
2022/11/29 11:47:27;;;;;;;63.85;20.80;;;;;;;;;;5130729;27;20460;-44
2022/11/29 11:50:02;;;;;;;50.20;18.55;;;;;;;;;;5131375;27;20034;-43
2022/11/29 11:52:32;;;;;;;74.85;21.17;;;;;;;;;;5110357;27;20039;-43
2022/11/29 11:55:20;;;;;;;60.40;19.40;;;;;;;;;;5125897;27;20043;-45
2022/11/29 11:58:04;;;;;;;59.88;18.65;;;;;;;;;;5131941;27;20130;-45
2022/11/29 12:00:37;;;;;;;66.68;20.23;;;;;;;;;;5114515;27;20099;-44
2022/11/29 12:03:32;;;;;;;54.80;18.42;;;;;;;;;;5131598;27;20488;-44
2022/11/29 12:06:11;;;;;;;43.75;18.05;;;;;;;;;;5130826;27;20479;-45
2022/11/29 12:08:38;;;;;;;63.90;19.27;;;;;;;;;;5130592;27;20046;-43
2022/11/29 12:11:07;;;;;;;50.53;16.88;;;;;;;;;;5130660;27;20088;-43
2022/11/29 12:13:34;;;;;;;49.40;17.95;;;;;;;;;;5130690;27;20042;-43
2022/11/29 12:16:06;;;;;;;74.22;19.25;;;;;;;;;;5131090;27;20047;-45
2022/11/29 12:18:45;;;;;;;63.55;18.80;;;;;;;;;;5127389;27;20114;-45
2022/11/29 12:21:13;;;;;;;49.63;17.80;;;;;;;;;;5129824;27;20737;-43
2022/11/29 12:23:45;;;;;;;57.00;20.25;;;;;;;;;;5130153;27;20050;-46
2022/11/29 12:26:12;;;;;;;70.60;21.97;;;;;;;;;;5126789;27;20074;-44
2022/11/29 12:28:58;;;;;;;46.85;16.17;;;;;;;;;;5127537;27;20119;-44
2022/11/29 12:31:47;;;;;;;49.50;17.67;;;;;;;;;;5130567;27;20058;-43
2022/11/29 12:34:22;;;;;;;64.88;21.55;;;;;;;;;;5129504;27;20384;-44
2022/11/29 12:36:54;;;;;;;70.05;19.67;;;;;;;;;;5128495;27;20046;-45
2022/11/29 12:39:32;;;;;;;55.13;18.70;;;;;;;;;;5131008;27;20505;-45
2022/11/29 12:42:22;;;;;;;53.00;18.33;;;;;;;;;;5130202;27;20042;-43
2022/11/29 12:44:56;;;;;;;56.55;18.08;;;;;;;;;;5129027;27;20460;-45
2022/11/29 12:47:41;;;;;;;55.78;18.70;;;;;;;;;;5130282;27;20506;-44
2022/11/29 12:50:11;;;;;;;42.00;17.20;;;;;;;;;;5128144;27;20035;-43
2022/11/29 12:52:38;;;;;;;62.63;18.20;;;;;;;;;;5129476;27;20042;-44
2022/11/29 12:55:24;;;;;;;51.58;16.50;;;;;;;;;;5129924;27;20043;-44
2022/11/29 12:57:54;;;;;;;52.88;17.92;;;;;;;;;;5127628;27;20047;-45
2022/11/29 13:00:20;;;;;;;80.05;19.95;;;;;;;;;;5129943;27;20514;-45
2022/11/29 13:02:59;;;;;;;54.97;17.88;;;;;;;;;;5125859;27;20051;-47
2022/11/29 13:05:32;;;;;;;64.82;18.52;;;;;;;;;;5129396;27;20491;-46
2022/11/29 13:08:17;;;;;;;44.03;16.40;;;;;;;;;;5129464;27;20398;-50
2022/11/29 13:10:43;;;;;;;102.05;20.10;;;;;;;;;;5126325;27;20507;-47
2022/11/29 13:13:21;;;;;;;65.50;19.02;;;;;;;;;;5129963;27;20499;-46
2022/11/29 13:16:02;;;;;;;60.97;19.23;;;;;;;;;;5130464;27;20043;-44
2022/11/29 13:18:28;;;;;;;55.97;19.88;;;;;;;;;;5128021;27;20088;-44
2022/11/29 13:20:58;;;;;;;69.03;19.45;;;;;;;;;;5128721;27;20502;-44
2022/11/29 13:23:36;;;;;;;49.63;17.35;;;;;;;;;;5125779;27;20065;-43
2022/11/29 13:26:23;;;;;;;72.53;19.75;;;;;;;;;;5123103;27;20046;-43
2022/11/29 13:28:50;;;;;;;47.80;17.48;;;;;;;;;;5129725;27;20092;-44
2022/11/29 13:31:18;;;;;;;57.17;17.83;;;;;;;;;;5129274;27;20433;-44
2022/11/29 13:33:57;;;;;;;41.30;15.40;;;;;;;;;;5130158;27;20035;-44
2022/11/29 13:36:36;;;;;;;69.47;19.05;;;;;;;;;;5128904;27;20490;-45
2022/11/29 13:39:23;;;;;;;72.00;18.80;;;;;;;;;;5126679;27;20611;-46
2022/11/29 13:42:02;;;;;;;63.00;18.85;;;;;;;;;;5126032;27;20468;-46
2022/11/29 13:44:38;;;;;;;66.75;18.05;;;;;;;;;;5124785;27;20046;-44
2022/11/29 13:47:08;;;;;;;43.97;16.88;;;;;;;;;;5129396;27;20055;-43
2022/11/29 13:49:51;;;;;;;53.15;17.80;;;;;;;;;;5125840;27;20091;-44
2022/11/29 13:52:24;;;;;;;52.22;15.65;;;;;;;;;;5128570;27;20125;-44
2022/11/29 13:55:30;;;;;;;44.30;15.95;;;;;;;;;;5125415;27;20076;-44
2022/11/29 13:58:09;;;;;;;53.08;17.60;;;;;;;;;;5114743;27;20058;-43
2022/11/29 14:00:44;;;;;;;56.78;16.60;;;;;;;;;;5125352;27;20046;-43
2022/11/29 14:03:19;;;;;;;47.03;15.30;;;;;;;;;;5127884;27;20108;-44
2022/11/29 14:05:47;;;;;;;53.85;16.88;;;;;;;;;;5128607;27;20441;-44
2022/11/29 14:08:26;;;;;;;51.83;17.17;;;;;;;;;;5128605;27;20053;-44
2022/11/29 14:10:57;;;;;;;53.53;16.83;;;;;;;;;;5134192;27;20027;-44
2022/11/29 14:13:28;;;;;;;47.17;16.67;;;;;;;;;;5135782;27;20054;-43
2022/11/29 14:15:56;;;;;;;52.55;17.02;;;;;;;;;;5136619;27;21169;-44
2022/11/29 14:18:40;;;;;;;58.90;18.95;;;;;;;;;;5133330;27;20047;-44
2022/11/29 14:21:07;;;;;;;54.50;18.25;;;;;;;;;;5133874;27;20043;-43
2022/11/29 14:23:35;;;;;;;47.70;17.80;;;;;;;;;;5135291;27;20039;-43
2022/11/29 14:26:02;;;;;;;67.45;19.88;;;;;;;;;;5135117;27;20046;-43
2022/11/29 14:28:33;;;;;;;64.85;20.98;;;;;;;;;;5135359;27;20367;-43
2022/11/29 14:31:02;;;;;;;51.08;17.40;;;;;;;;;;5135922;27;20039;-44
2022/11/29 14:33:47;;;;;;;53.45;17.65;;;;;;;;;;5135619;27;20066;-44
2022/11/29 14:36:16;;;;;;;47.25;17.17;;;;;;;;;;5134624;27;20130;-43
2022/11/29 14:38:55;;;;;;;54.78;17.52;;;;;;;;;;5134753;27;20031;-44
2022/11/29 14:41:25;;;;;;;53.95;18.15;;;;;;;;;;5132259;27;20067;-44
2022/11/29 14:44:03;;;;;;;63.38;22.48;;;;;;;;;;5135640;27;20043;-45
2022/11/29 14:46:30;;;;;;;90.20;26.38;;;;;;;;;;5132791;27;20091;-45
2022/11/29 14:49:01;;;;;;;61.67;22.83;;;;;;;;;;5135279;27;20057;-44
2022/11/29 14:51:30;;;;;;;67.00;20.88;;;;;;;;;;5135049;27;20043;-43
2022/11/29 14:54:17;;;;;;;72.75;21.20;;;;;;;;;;5134872;27;20118;-44
2022/11/29 14:56:44;;;;;;;64.55;20.92;;;;;;;;;;5134563;27;20043;-45
2022/11/29 14:59:29;;;;;;;55.42;18.65;;;;;;;;;;5134956;27;20038;-44